createdAt,value
2018-09-15T00:02:11.097Z,61.71
2018-09-15T00:04:40.239Z,63.59
2018-09-15T00:07:09.783Z,62.74
2018-09-15T00:09:39.466Z,61.77
2018-09-15T00:12:08.530Z,63.24
2018-09-15T00:14:37.651Z,63.57
2018-09-15T00:17:06.658Z,62.72
2018-09-15T00:19:35.866Z,64.44
2018-09-15T00:22:04.918Z,63.30
2018-09-15T00:24:34.027Z,62.54
2018-09-15T00:27:03.403Z,65.93
2018-09-15T00:29:32.487Z,64.10
2018-09-15T00:32:01.834Z,63.01
2018-09-15T00:34:31.321Z,64.23
2018-09-15T00:37:00.350Z,64.09
2018-09-15T00:39:29.321Z,65.06
2018-09-15T00:41:58.434Z,65.11
2018-09-15T00:44:27.425Z,64.88
2018-09-15T00:46:56.776Z,65.62
2018-09-15T00:49:26.014Z,65.70
2018-09-15T00:51:55.118Z,66.06
2018-09-15T00:54:24.445Z,65.83
2018-09-15T00:56:53.454Z,65.78
2018-09-15T00:59:22.475Z,66.43
2018-09-15T01:01:51.790Z,65.59
2018-09-15T01:04:20.765Z,66.52
2018-09-15T01:06:49.770Z,69.40
2018-09-15T01:09:19.342Z,67.56
2018-09-15T01:11:48.646Z,66.42
2018-09-15T01:14:18.013Z,66.97
2018-09-15T01:16:47.762Z,66.49
2018-09-15T01:19:16.786Z,66.67
2018-09-15T01:21:45.793Z,66.32
2018-09-15T01:24:14.822Z,66.18
2018-09-15T01:26:43.820Z,66.62
2018-09-15T01:29:13.077Z,66.42
2018-09-15T01:31:42.074Z,66.06
2018-09-15T01:34:11.293Z,66.48
2018-09-15T01:36:40.296Z,66.70
2018-09-15T01:39:10.135Z,66.34
2018-09-15T01:41:39.728Z,65.89
2018-09-15T01:44:08.699Z,65.85
2018-09-15T01:46:37.683Z,66.38
2018-09-15T01:49:06.674Z,66.24
2018-09-15T01:51:35.966Z,66.38
2018-09-15T01:54:05.374Z,66.11
2018-09-15T01:56:34.363Z,65.53
2018-09-15T01:59:03.370Z,65.70
2018-09-15T02:01:32.360Z,66.28
2018-09-15T02:04:01.571Z,66.08
2018-09-15T02:06:30.556Z,67.03
2018-09-15T02:08:59.550Z,65.39
2018-09-15T02:11:28.547Z,66.47
2018-09-15T02:13:57.658Z,65.80
2018-09-15T02:16:26.643Z,65.57
2018-09-15T02:18:55.881Z,65.38
2018-09-15T02:21:25.173Z,65.34
2018-09-15T02:23:54.169Z,64.42
2018-09-15T02:26:23.458Z,64.82
2018-09-15T02:28:52.765Z,64.23
2018-09-15T02:31:21.667Z,64.14
2018-09-15T02:33:50.741Z,64.36
2018-09-15T02:36:19.790Z,63.95
2018-09-15T02:38:49.102Z,63.94
2018-09-15T02:41:18.070Z,63.78
2018-09-15T02:43:47.394Z,62.03
2018-09-15T02:46:16.774Z,62.86
2018-09-15T02:48:45.797Z,62.46
2018-09-15T02:51:14.762Z,62.24
2018-09-15T02:53:43.984Z,62.13
2018-09-15T02:56:12.973Z,61.52
2018-09-15T02:58:42.007Z,62.05
2018-09-15T03:01:11.189Z,61.84
2018-09-15T03:03:40.469Z,62.60
2018-09-15T03:06:09.511Z,62.45
2018-09-15T03:08:38.530Z,62.15
2018-09-15T03:11:07.757Z,62.46
2018-09-15T03:13:36.733Z,62.82
2018-09-15T03:16:05.703Z,61.68
2018-09-15T03:18:34.726Z,63.40
2018-09-15T03:21:03.709Z,62.47
2018-09-15T03:23:32.713Z,63.70
2018-09-15T03:26:01.926Z,63.67
2018-09-15T03:28:30.893Z,62.07
2018-09-15T03:30:59.933Z,61.37
2018-09-15T03:33:29.214Z,62.17
2018-09-15T03:35:58.200Z,61.94
2018-09-15T03:38:27.469Z,60.98
2018-09-15T03:40:56.465Z,61.02
2018-09-15T03:43:25.438Z,60.25
2018-09-15T03:45:54.420Z,60.29
2018-09-15T03:48:23.450Z,60.84
2018-09-15T03:50:52.431Z,61.22
2018-09-15T03:53:21.734Z,60.02
2018-09-15T03:55:50.721Z,61.17
2018-09-15T03:58:19.706Z,61.12
2018-09-15T04:00:49.185Z,59.85
2018-09-15T04:03:18.174Z,61.07
2018-09-15T04:05:47.215Z,60.47
2018-09-15T04:08:16.234Z,60.70
2018-09-15T04:10:45.654Z,60.39
2018-09-15T04:13:14.813Z,60.97
2018-09-15T04:15:44.074Z,60.35
2018-09-15T04:18:16.882Z,60.63
2018-09-15T04:20:47.787Z,60.23
2018-09-15T04:23:17.382Z,59.64
2018-09-15T04:25:46.594Z,59.27
2018-09-15T04:28:15.593Z,60.65
2018-09-15T04:30:44.873Z,60.01
2018-09-15T04:33:13.864Z,58.96
2018-09-15T04:35:42.862Z,60.20
2018-09-15T04:38:11.848Z,61.31
2018-09-15T04:40:41.157Z,59.33
2018-09-15T04:43:10.376Z,60.36
2018-09-15T04:45:39.681Z,59.20
2018-09-15T04:48:08.680Z,58.50
2018-09-15T04:50:37.714Z,59.15
2018-09-15T04:53:06.708Z,59.63
2018-09-15T04:55:35.726Z,59.00
2018-09-15T04:58:04.721Z,59.11
2018-09-15T05:00:33.829Z,60.39
2018-09-15T05:03:02.843Z,61.48
2018-09-15T05:05:31.831Z,60.27
2018-09-15T05:08:01.422Z,60.18
2018-09-15T05:10:30.481Z,60.18
2018-09-15T05:12:59.578Z,59.75
2018-09-15T05:15:28.572Z,60.07
2018-09-15T05:17:57.607Z,60.60
2018-09-15T05:20:27.485Z,59.78
2018-09-15T05:22:56.598Z,59.95
2018-09-15T05:25:25.606Z,60.08
2018-09-15T05:27:54.853Z,61.52
2018-09-15T05:30:23.842Z,60.23
2018-09-15T05:32:52.836Z,58.93
2018-09-15T05:35:21.874Z,59.39
2018-09-15T05:37:51.190Z,59.44
2018-09-15T05:40:20.450Z,58.34
2018-09-15T05:42:49.630Z,59.43
2018-09-15T05:45:18.623Z,59.35
2018-09-15T05:47:47.609Z,58.53
2018-09-15T05:50:16.650Z,58.99
2018-09-15T05:52:45.643Z,59.56
2018-09-15T05:55:14.887Z,59.45
2018-09-15T05:57:43.882Z,59.56
2018-09-15T06:00:12.874Z,59.93
2018-09-15T06:02:42.154Z,60.99
2018-09-15T06:05:11.158Z,59.97
2018-09-15T06:07:40.706Z,59.52
2018-09-15T06:10:09.639Z,59.11
2018-09-15T06:12:38.674Z,58.74
2018-09-15T06:15:08.958Z,59.71
2018-09-15T06:17:38.037Z,60.74
2018-09-15T06:20:07.478Z,59.16
2018-09-15T06:22:36.647Z,58.74
2018-09-15T06:25:05.649Z,59.07
2018-09-15T06:27:34.654Z,59.60
2018-09-15T06:30:03.835Z,59.61
2018-09-15T06:32:33.110Z,59.39
2018-09-15T06:35:02.108Z,59.71
2018-09-15T06:37:31.130Z,59.10
2018-09-15T06:40:00.434Z,58.16
2018-09-15T06:42:29.427Z,58.82
2018-09-15T06:44:58.474Z,57.78
2018-09-15T06:47:27.482Z,57.72
2018-09-15T06:49:56.697Z,58.23
2018-09-15T06:52:25.786Z,58.17
2018-09-15T06:54:55.049Z,58.27
2018-09-15T06:57:24.117Z,57.06
2018-09-15T06:59:53.112Z,57.97
2018-09-15T07:02:22.133Z,57.81
2018-09-15T07:04:51.495Z,56.85
2018-09-15T07:07:20.693Z,56.58
2018-09-15T07:09:49.709Z,56.26
2018-09-15T07:12:19.000Z,56.69
2018-09-15T07:14:48.037Z,55.69
2018-09-15T07:17:17.059Z,56.04
2018-09-15T07:19:46.078Z,56.19
2018-09-15T07:22:15.395Z,56.57
2018-09-15T07:24:44.767Z,56.34
2018-09-15T07:27:13.771Z,56.50
2018-09-15T07:29:43.034Z,55.85
2018-09-15T07:32:12.402Z,57.56
2018-09-15T07:34:41.679Z,56.20
2018-09-15T07:37:10.846Z,55.78
2018-09-15T07:39:40.326Z,57.24
2018-09-15T07:42:10.514Z,56.73
2018-09-15T07:44:39.938Z,55.17
2018-09-15T07:47:09.301Z,55.90
2018-09-15T07:49:38.426Z,55.60
2018-09-15T07:52:08.289Z,55.73
2018-09-15T07:54:37.663Z,54.39
2018-09-15T07:57:06.964Z,55.61
2018-09-15T07:59:36.654Z,53.96
2018-09-15T08:02:11.103Z,54.59
2018-09-15T08:04:40.365Z,56.44
2018-09-15T08:07:10.564Z,54.17
2018-09-15T08:09:39.722Z,54.77
2018-09-15T08:12:08.965Z,54.08
2018-09-15T08:14:38.293Z,53.55
2018-09-15T08:17:07.509Z,54.02
2018-09-15T08:19:36.555Z,53.05
2018-09-15T08:22:05.857Z,51.58
2018-09-15T08:24:37.734Z,53.27
2018-09-15T08:27:07.218Z,51.95
2018-09-15T08:29:36.434Z,52.67
2018-09-15T08:32:05.805Z,53.68
2018-09-15T08:34:34.946Z,54.54
2018-09-15T08:37:04.092Z,54.15
2018-09-15T08:39:33.698Z,54.38
2018-09-15T08:42:02.879Z,54.37
2018-09-15T08:44:31.938Z,53.20
2018-09-15T08:47:01.086Z,52.42
2018-09-15T08:49:37.050Z,51.66
2018-09-15T08:52:06.193Z,51.48
2018-09-15T08:54:35.224Z,49.14
2018-09-15T08:59:46.167Z,51.03
2018-09-15T09:02:15.450Z,52.10
2018-09-15T09:04:45.290Z,53.44
2018-09-15T09:07:14.358Z,53.05
2018-09-15T09:09:43.367Z,53.16
2018-09-15T09:12:12.395Z,50.90
2018-09-15T09:14:41.387Z,50.44
2018-09-15T09:17:11.022Z,51.27
2018-09-15T09:19:41.186Z,51.26
2018-09-15T09:22:10.387Z,53.60
2018-09-15T09:24:39.709Z,53.63
2018-09-15T09:27:08.822Z,53.16
2018-09-15T09:29:37.880Z,53.73
2018-09-15T09:32:07.031Z,52.69
2018-09-15T09:34:36.374Z,53.09
2018-09-15T09:37:05.808Z,53.07
2018-09-15T09:39:35.049Z,53.60
2018-09-15T09:42:04.452Z,52.89
2018-09-15T09:44:33.653Z,53.15
2018-09-15T09:47:03.208Z,51.84
2018-09-15T09:49:32.764Z,52.42
2018-09-15T09:52:01.947Z,52.02
2018-09-15T09:54:37.338Z,52.09
2018-09-15T09:57:07.196Z,51.30
2018-09-15T09:59:36.453Z,52.24
2018-09-15T10:02:11.125Z,50.32
2018-09-15T10:04:41.098Z,51.04
2018-09-15T10:07:10.402Z,51.17
2018-09-15T10:09:39.866Z,49.82
2018-09-15T10:12:09.164Z,49.83
2018-09-15T10:14:38.400Z,49.67
2018-09-15T10:17:07.965Z,50.09
2018-09-15T10:19:37.562Z,49.78
2018-09-15T10:22:06.961Z,48.74
2018-09-15T10:24:36.284Z,48.96
2018-09-15T10:27:05.469Z,50.08
2018-09-15T10:29:34.744Z,50.17
2018-09-15T10:32:04.021Z,50.89
2018-09-15T10:34:33.078Z,48.35
2018-09-15T10:37:02.110Z,48.76
2018-09-15T10:39:31.479Z,48.57
2018-09-15T10:42:02.390Z,50.47
2018-09-15T10:44:32.422Z,49.48
2018-09-15T10:47:01.594Z,50.11
2018-09-15T10:49:30.678Z,49.00
2018-09-15T10:52:00.878Z,48.63
2018-09-15T10:54:30.083Z,48.26
2018-09-15T10:56:59.251Z,47.43
2018-09-15T10:59:28.366Z,48.91
2018-09-15T11:01:57.518Z,48.43
2018-09-15T11:04:26.688Z,48.31
2018-09-15T11:06:55.925Z,48.38
2018-09-15T11:09:24.998Z,47.07
2018-09-15T11:11:54.078Z,46.99
2018-09-15T11:14:23.511Z,46.19
2018-09-15T11:16:52.809Z,49.95
2018-09-15T11:19:22.077Z,46.90
2018-09-15T11:21:51.114Z,46.25
2018-09-15T11:24:20.194Z,46.63
2018-09-15T11:26:49.286Z,47.99
2018-09-15T11:29:18.316Z,48.26
2018-09-15T11:31:47.367Z,49.13
2018-09-15T11:34:16.372Z,49.30
2018-09-15T11:36:45.393Z,49.09
2018-09-15T11:39:15.050Z,48.91
2018-09-15T11:41:44.057Z,49.34
2018-09-15T11:44:13.078Z,48.94
2018-09-15T11:46:42.371Z,48.94
2018-09-15T11:49:11.393Z,48.40
2018-09-15T11:51:40.392Z,48.31
2018-09-15T11:54:09.467Z,49.72
2018-09-15T11:56:38.813Z,49.10
2018-09-15T11:59:08.070Z,49.68
2018-09-15T12:01:37.334Z,50.22
2018-09-15T12:04:06.378Z,49.81
2018-09-15T12:06:35.423Z,49.56
2018-09-15T12:09:06.201Z,49.85
2018-09-15T12:11:35.192Z,49.58
2018-09-15T12:14:04.242Z,48.21
2018-09-15T12:16:33.211Z,47.00
2018-09-15T12:19:02.482Z,46.21
2018-09-15T12:21:31.486Z,46.34
2018-09-15T12:24:00.474Z,44.84
2018-09-15T12:26:29.945Z,45.31
2018-09-15T12:28:58.961Z,45.57
2018-09-15T12:31:27.947Z,45.10
2018-09-15T12:33:56.997Z,44.64
2018-09-15T12:36:26.064Z,43.45
2018-09-15T12:38:55.111Z,44.80
2018-09-15T12:41:24.574Z,43.38
2018-09-15T12:43:53.642Z,43.98
2018-09-15T12:46:22.700Z,42.89
2018-09-15T12:48:51.681Z,43.95
2018-09-15T12:51:20.737Z,43.63
2018-09-15T12:53:49.742Z,44.31
2018-09-15T12:56:18.935Z,43.41
2018-09-15T12:58:48.306Z,43.63
2018-09-15T13:01:17.341Z,43.93
2018-09-15T13:03:46.545Z,43.49
2018-09-15T13:06:15.791Z,43.61
2018-09-15T13:08:44.857Z,44.29
2018-09-15T13:11:14.927Z,44.85
2018-09-15T13:13:44.375Z,44.54
2018-09-15T13:16:13.599Z,43.83
2018-09-15T13:18:42.706Z,44.20
2018-09-15T13:21:11.727Z,44.23
2018-09-15T13:23:40.890Z,43.09
2018-09-15T13:26:09.879Z,42.21
2018-09-15T13:28:38.891Z,42.46
2018-09-15T13:31:08.112Z,43.26
2018-09-15T13:33:37.115Z,42.36
2018-09-15T13:36:06.261Z,43.89
2018-09-15T13:38:35.449Z,43.28
2018-09-15T13:41:04.557Z,44.54
2018-09-15T13:43:33.657Z,43.56
2018-09-15T13:46:02.691Z,44.32
2018-09-15T13:48:31.751Z,42.82
2018-09-15T13:51:00.898Z,43.74
2018-09-15T13:53:30.200Z,42.43
2018-09-15T13:55:59.282Z,42.70
2018-09-15T13:58:29.402Z,43.02
2018-09-15T14:00:58.395Z,42.60
2018-09-15T14:03:27.427Z,42.15
2018-09-15T14:05:56.417Z,42.30
2018-09-15T14:08:25.438Z,43.18
2018-09-15T14:10:54.497Z,43.06
2018-09-15T14:13:23.729Z,43.47
2018-09-15T14:15:52.980Z,43.76
2018-09-15T14:18:22.012Z,44.10
2018-09-15T14:20:51.376Z,44.48
2018-09-15T14:23:20.795Z,43.88
2018-09-15T14:25:49.778Z,44.42
2018-09-15T14:28:18.776Z,44.80
2018-09-15T14:30:47.800Z,44.32
2018-09-15T14:33:16.954Z,45.23
2018-09-15T14:35:45.998Z,44.54
2018-09-15T14:38:15.023Z,45.95
2018-09-15T14:40:44.067Z,46.74
2018-09-15T14:43:13.276Z,46.82
2018-09-15T14:45:42.326Z,45.64
2018-09-15T14:48:11.351Z,45.55
2018-09-15T14:50:40.354Z,45.81
2018-09-15T14:53:09.374Z,45.13
2018-09-15T14:55:38.904Z,45.50
2018-09-15T14:58:08.184Z,46.44
2018-09-15T15:00:37.320Z,45.10
2018-09-15T15:03:08.201Z,45.64
2018-09-15T15:05:37.891Z,45.29
2018-09-15T15:08:06.891Z,45.58
2018-09-15T15:10:36.038Z,44.87
2018-09-15T15:13:05.293Z,46.34
2018-09-15T15:15:34.351Z,45.96
2018-09-15T15:18:03.446Z,45.24
2018-09-15T15:20:32.586Z,45.69
2018-09-15T15:23:01.659Z,46.21
2018-09-15T15:25:30.678Z,45.09
2018-09-15T15:27:59.705Z,46.13
2018-09-15T15:30:28.963Z,45.31
2018-09-15T15:32:58.279Z,46.22
2018-09-15T15:35:27.382Z,44.81
2018-09-15T15:37:56.431Z,45.36
2018-09-15T15:40:25.526Z,45.45
2018-09-15T15:42:55.530Z,44.46
2018-09-15T15:45:24.635Z,44.55
2018-09-15T15:47:53.638Z,43.69
2018-09-15T15:50:22.934Z,43.67
2018-09-15T15:52:52.623Z,44.93
2018-09-15T15:55:21.703Z,45.38
2018-09-15T15:57:50.732Z,43.99
2018-09-15T16:00:19.771Z,45.25
2018-09-15T16:02:49.415Z,45.61
2018-09-15T16:05:19.720Z,45.29
2018-09-15T16:07:48.867Z,45.71
2018-09-15T16:10:18.690Z,45.09
2018-09-15T16:12:47.820Z,45.44
2018-09-15T16:15:16.960Z,46.83
2018-09-15T16:17:45.991Z,46.32
2018-09-15T16:20:15.384Z,46.55
2018-09-15T16:22:44.500Z,48.23
2018-09-15T16:25:13.933Z,47.48
2018-09-15T16:27:43.348Z,46.67
2018-09-15T16:30:12.396Z,46.25
2018-09-15T16:32:42.425Z,45.96
2018-09-15T16:35:12.772Z,45.65
2018-09-15T16:37:45.077Z,46.35
2018-09-15T16:42:53.715Z,44.99
2018-09-15T16:45:23.327Z,45.10
2018-09-15T16:47:52.590Z,44.56
2018-09-15T16:50:22.019Z,46.05
2018-09-15T16:52:51.191Z,45.04
2018-09-15T16:55:20.719Z,44.78
2018-09-15T16:57:50.127Z,46.43
2018-09-15T17:00:19.481Z,44.65
2018-09-15T17:02:48.821Z,45.37
2018-09-15T17:05:18.141Z,46.13
2018-09-15T17:07:47.583Z,46.36
2018-09-15T17:10:18.555Z,45.66
2018-09-15T17:12:49.132Z,46.22
2018-09-15T17:15:20.197Z,46.76
2018-09-15T17:17:50.801Z,46.42
2018-09-15T17:20:21.647Z,46.45
2018-09-15T17:22:52.341Z,46.09
2018-09-15T17:25:23.425Z,46.31
2018-09-15T17:27:52.762Z,47.05
2018-09-15T17:30:22.211Z,47.47
2018-09-15T17:32:51.604Z,46.82
2018-09-15T17:35:21.025Z,46.73
2018-09-15T17:37:52.264Z,47.08
2018-09-15T17:40:24.634Z,47.80
2018-09-15T17:42:55.058Z,47.17
2018-09-15T17:45:24.401Z,48.11
2018-09-15T17:47:54.806Z,48.37
2018-09-15T17:50:24.316Z,47.74
2018-09-15T17:52:53.957Z,47.99
2018-09-15T17:55:25.248Z,49.73
2018-09-15T17:57:55.409Z,49.77
2018-09-15T18:00:26.301Z,49.06
2018-09-15T18:02:55.536Z,48.43
2018-09-15T18:05:25.035Z,49.25
2018-09-15T18:07:54.231Z,49.17
2018-09-15T18:13:00.668Z,48.89
2018-09-15T18:15:30.328Z,52.02
2018-09-15T18:18:00.025Z,54.84
2018-09-15T18:20:29.268Z,55.29
2018-09-15T18:23:00.074Z,55.94
2018-09-15T18:25:30.957Z,56.24
2018-09-15T18:28:02.208Z,57.55
2018-09-15T18:30:32.777Z,57.94
2018-09-15T18:33:02.827Z,58.01
2018-09-15T18:35:34.426Z,58.17
2018-09-15T18:38:04.119Z,59.01
2018-09-15T18:40:34.734Z,58.48
2018-09-15T18:43:04.760Z,58.22
2018-09-15T18:45:35.924Z,59.10
2018-09-15T18:48:05.573Z,58.01
2018-09-15T18:50:35.501Z,58.25
2018-09-15T18:53:04.800Z,58.87
2018-09-15T18:55:35.473Z,57.96
2018-09-15T18:58:08.912Z,57.89
2018-09-15T19:00:39.003Z,57.72
2018-09-15T19:03:12.906Z,57.93
2018-09-15T19:05:41.993Z,57.98
2018-09-15T19:08:12.214Z,58.10
2018-09-15T19:10:41.326Z,58.49
2018-09-15T19:13:11.090Z,57.58
2018-09-15T19:15:41.541Z,58.03
2018-09-15T19:18:11.339Z,59.06
2018-09-15T19:20:41.986Z,57.95
2018-09-15T19:23:11.464Z,57.19
2018-09-15T19:25:40.747Z,60.14
2018-09-15T19:28:09.816Z,58.95
2018-09-15T19:30:39.409Z,58.48
2018-09-15T19:33:09.542Z,58.21
2018-09-15T19:35:38.937Z,59.47
2018-09-15T19:38:09.096Z,61.08
2018-09-15T19:40:38.219Z,61.03
2018-09-15T19:43:07.694Z,61.27
2018-09-15T19:45:36.904Z,59.49
2018-09-15T19:48:07.499Z,59.83
2018-09-15T19:50:37.683Z,59.23
2018-09-15T19:53:08.686Z,59.97
2018-09-15T19:55:38.322Z,59.58
2018-09-15T19:58:10.982Z,60.28
2018-09-15T20:00:40.493Z,59.88
2018-09-15T20:03:10.093Z,59.47
2018-09-15T20:05:43.338Z,61.56
2018-09-15T20:08:14.241Z,62.94
2018-09-15T20:10:44.407Z,63.58
2018-09-15T20:13:15.780Z,63.89
2018-09-15T20:15:44.169Z,63.59
2018-09-15T20:18:11.944Z,64.96
2018-09-15T20:20:40.241Z,64.82
2018-09-15T20:23:11.224Z,64.60
2018-09-15T20:25:41.570Z,63.58
2018-09-15T20:28:11.803Z,62.93
2018-09-15T20:30:42.046Z,64.32
2018-09-15T20:33:11.433Z,64.67
2018-09-15T20:35:40.757Z,64.44
2018-09-15T20:38:11.653Z,64.61
2018-09-15T20:40:42.070Z,64.60
2018-09-15T20:43:12.917Z,65.00
2018-09-15T20:45:44.039Z,65.92
2018-09-15T20:48:14.276Z,66.23
2018-09-15T20:50:43.439Z,66.04
2018-09-15T20:53:14.105Z,66.59
2018-09-15T20:55:46.051Z,66.90
2018-09-15T20:58:15.742Z,65.73
2018-09-15T21:00:45.085Z,65.42
2018-09-15T21:03:15.990Z,65.97
2018-09-15T21:05:45.369Z,66.11
2018-09-15T21:08:15.390Z,64.91
2018-09-15T21:10:46.064Z,65.17
2018-09-15T21:13:15.287Z,64.58
2018-09-15T21:15:44.722Z,64.98
2018-09-15T21:18:14.713Z,64.87
2018-09-15T21:20:45.233Z,65.79
2018-09-15T21:23:15.198Z,66.16
2018-09-15T21:25:44.346Z,66.41
2018-09-15T21:28:13.569Z,65.96
2018-09-15T21:30:43.114Z,66.57
2018-09-15T21:33:13.476Z,67.04
2018-09-15T21:35:43.157Z,67.00
2018-09-15T21:38:13.317Z,67.13
2018-09-15T21:40:43.521Z,67.51
2018-09-15T21:43:13.804Z,67.87
2018-09-15T21:45:44.133Z,68.67
2018-09-15T21:48:14.367Z,67.89
2018-09-15T21:50:43.671Z,68.44
2018-09-15T21:53:13.016Z,68.35
2018-09-15T21:55:42.054Z,68.04
2018-09-15T21:58:11.633Z,69.25
2018-09-15T22:00:41.627Z,69.73
2018-09-15T22:03:11.187Z,68.30
2018-09-15T22:05:40.369Z,69.31
2018-09-15T22:08:09.562Z,69.16
2018-09-15T22:10:38.696Z,69.46
2018-09-15T22:13:08.064Z,69.00
2018-09-15T22:15:37.099Z,69.09
2018-09-15T22:18:06.870Z,69.53
2018-09-15T22:20:35.972Z,70.15
2018-09-15T22:23:05.152Z,70.22
2018-09-15T22:25:34.420Z,69.30
2018-09-15T22:28:03.493Z,69.60
2018-09-15T22:30:32.516Z,69.72
2018-09-15T22:33:01.872Z,69.69
2018-09-15T22:38:08.588Z,69.40
2018-09-15T22:40:37.679Z,69.84
2018-09-15T22:43:06.794Z,68.61
2018-09-15T22:45:36.032Z,68.69
2018-09-15T22:48:05.113Z,68.72
2018-09-15T22:50:34.266Z,68.69
2018-09-15T22:53:10.430Z,68.70
2018-09-15T22:55:39.482Z,69.19
2018-09-15T22:58:08.518Z,69.30
2018-09-15T23:00:37.698Z,68.57
2018-09-15T23:03:07.036Z,66.53
2018-09-15T23:05:38.736Z,66.74
2018-09-15T23:08:08.084Z,67.01
2018-09-15T23:10:37.428Z,66.97
2018-09-15T23:13:06.953Z,66.53
2018-09-15T23:15:36.023Z,66.85
2018-09-15T23:18:05.365Z,67.07
2018-09-15T23:20:34.831Z,67.85
2018-09-15T23:23:04.769Z,66.89
2018-09-15T23:25:35.272Z,67.45
2018-09-15T23:28:04.334Z,67.95
2018-09-15T23:30:33.584Z,68.49
2018-09-15T23:33:02.656Z,66.98
2018-09-15T23:35:31.714Z,66.45
2018-09-15T23:38:00.909Z,67.14
2018-09-15T23:40:29.918Z,66.90
2018-09-15T23:42:58.917Z,67.59
2018-09-15T23:45:28.336Z,67.60
2018-09-15T23:47:57.435Z,67.62
2018-09-15T23:50:26.485Z,72.27
2018-09-15T23:52:55.594Z,71.85
2018-09-15T23:55:24.643Z,68.27
2018-09-15T23:57:53.695Z,68.98
